createdAt,value
2023-04-21T00:03:48.808Z,7.20
2023-04-21T00:08:50.445Z,7.33
2023-04-21T00:13:51.901Z,7.17
2023-04-21T00:18:53.241Z,6.20
2023-04-21T00:23:54.579Z,5.90
2023-04-21T00:28:55.983Z,6.80
2023-04-21T00:33:57.371Z,6.17
2023-04-21T00:38:58.659Z,6.27
2023-04-21T00:44:09.763Z,5.53
2023-04-21T00:49:13.074Z,6.43
2023-04-21T00:54:14.623Z,7.20
2023-04-21T00:59:16.404Z,5.80
2023-04-21T01:04:17.812Z,6.40
2023-04-21T01:09:19.387Z,5.63
2023-04-21T01:14:21.082Z,5.27
2023-04-21T01:19:22.916Z,6.00
2023-04-21T01:24:25.027Z,5.83
2023-04-21T01:29:26.374Z,6.17
2023-04-21T01:34:27.782Z,7.03
2023-04-21T01:39:29.534Z,5.83
2023-04-21T01:44:30.849Z,5.80
2023-04-21T01:49:32.315Z,6.10
2023-04-21T01:54:33.725Z,5.00
2023-04-21T01:59:36.101Z,4.50
2023-04-21T02:04:37.561Z,4.90
2023-04-21T02:09:39.035Z,5.10
2023-04-21T02:14:40.353Z,4.60
2023-04-21T02:19:41.681Z,5.07
2023-04-21T02:24:43.129Z,4.70
2023-04-21T02:29:44.457Z,4.83
2023-04-21T02:34:45.876Z,4.27
2023-04-21T02:39:47.309Z,4.80
2023-04-21T02:44:48.790Z,5.00
2023-04-21T02:49:50.294Z,4.33
2023-04-21T02:54:51.658Z,4.53
2023-04-21T02:59:53.122Z,4.57
2023-04-21T03:04:54.538Z,4.33
2023-04-21T03:09:55.874Z,4.07
2023-04-21T03:14:57.219Z,5.23
2023-04-21T03:19:58.555Z,5.07
2023-04-21T03:24:59.860Z,5.63
2023-04-21T03:30:01.409Z,4.40
2023-04-21T03:35:02.813Z,5.37
2023-04-21T03:40:07.561Z,4.40
2023-04-21T03:45:09.603Z,5.00
2023-04-21T03:50:10.950Z,4.73
2023-04-21T03:55:12.484Z,5.07
2023-04-21T04:00:14.269Z,4.77
2023-04-21T04:05:15.787Z,5.57
2023-04-21T04:10:17.227Z,4.53
2023-04-21T04:15:18.644Z,5.13
2023-04-21T04:20:19.973Z,4.07
2023-04-21T04:25:21.398Z,5.60
2023-04-21T04:30:24.007Z,4.90
2023-04-21T04:35:25.340Z,5.40
2023-04-21T04:40:26.768Z,5.20
2023-04-21T04:45:29.713Z,4.90
2023-04-21T04:50:31.122Z,4.77
2023-04-21T04:55:32.778Z,4.73
2023-04-21T05:00:34.176Z,4.63
2023-04-21T05:05:35.528Z,4.80
2023-04-21T05:10:36.922Z,4.40
2023-04-21T05:15:38.261Z,4.30
2023-04-21T05:20:42.788Z,3.63
2023-04-21T05:30:45.550Z,3.97
2023-04-21T05:35:46.936Z,3.35
2023-04-21T05:40:55.454Z,3.55
2023-04-21T05:45:56.816Z,3.38
2023-04-21T05:51:07.546Z,2.92
2023-04-21T05:56:09.523Z,3.80
2023-04-21T06:01:11.308Z,3.75
2023-04-21T06:06:13.249Z,3.55
2023-04-21T06:11:14.681Z,3.17
2023-04-21T06:16:16.133Z,3.65
2023-04-21T06:21:17.643Z,3.35
2023-04-21T06:26:19.019Z,3.95
2023-04-21T06:31:20.452Z,3.20
2023-04-21T06:36:22.846Z,3.20
2023-04-21T06:41:24.964Z,3.30
2023-04-21T06:46:26.511Z,3.13
2023-04-21T06:51:28.059Z,3.35
2023-04-21T06:56:29.709Z,3.30
2023-04-21T07:01:31.070Z,3.60
2023-04-21T07:06:32.554Z,3.10
2023-04-21T07:11:33.946Z,3.20
2023-04-21T07:16:35.338Z,3.50
2023-04-21T07:21:36.763Z,6.40
2023-04-21T07:26:38.088Z,3.47
2023-04-21T07:31:39.528Z,3.60
2023-04-21T07:36:41.072Z,3.55
2023-04-21T07:41:42.429Z,3.75
2023-04-21T07:46:43.879Z,3.40
2023-04-21T07:51:45.481Z,3.92
2023-04-21T07:56:47.161Z,3.95
2023-04-21T08:01:48.541Z,3.75
2023-04-21T08:06:50.029Z,3.97
2023-04-21T08:11:51.570Z,3.72
2023-04-21T08:16:54.060Z,3.70
2023-04-21T08:21:58.501Z,4.43
2023-04-21T08:27:02.088Z,3.80
2023-04-21T08:32:03.685Z,3.92
2023-04-21T08:37:05.804Z,3.67
2023-04-21T08:42:08.210Z,4.78
2023-04-21T08:47:10.604Z,4.78
2023-04-21T08:52:13.230Z,4.93
2023-04-21T08:57:16.276Z,4.45
2023-04-21T09:02:22.206Z,3.80
2023-04-21T09:07:30.734Z,4.53
2023-04-21T09:12:32.117Z,3.97
2023-04-21T09:17:33.906Z,4.82
2023-04-21T09:22:37.891Z,5.50
2023-04-21T09:27:41.136Z,4.25
2023-04-21T09:32:42.557Z,4.53
2023-04-21T09:37:44.450Z,5.28
2023-04-21T09:42:45.900Z,4.55
2023-04-21T09:47:50.832Z,5.40
2023-04-21T09:52:53.179Z,5.03
2023-04-21T09:57:58.229Z,5.28
2023-04-21T10:03:00.798Z,4.45
2023-04-21T10:08:02.358Z,5.30
2023-04-21T10:13:04.306Z,4.57
2023-04-21T10:18:11.700Z,6.45
2023-04-21T10:23:25.416Z,5.00
2023-04-21T10:28:38.989Z,5.20
2023-04-21T10:33:40.638Z,6.57
2023-04-21T10:38:43.238Z,5.07
2023-04-21T10:43:49.498Z,4.20
2023-04-21T10:48:52.286Z,4.57
2023-04-21T10:53:53.732Z,4.70
2023-04-21T10:58:56.042Z,4.28
2023-04-21T11:03:59.173Z,4.78
2023-04-21T11:09:00.815Z,4.82
2023-04-21T11:14:02.509Z,4.35
2023-04-21T11:19:03.844Z,4.57
2023-04-21T11:24:05.519Z,5.25
2023-04-21T11:29:07.547Z,3.92
2023-04-21T11:34:08.985Z,4.90
2023-04-21T11:39:12.133Z,4.05
2023-04-21T11:44:14.617Z,4.83
2023-04-21T11:49:17.153Z,4.72
2023-04-21T11:54:18.726Z,4.80
2023-04-21T11:59:25.772Z,4.90
2023-04-21T12:04:27.721Z,4.10
2023-04-21T12:09:29.747Z,4.60
2023-04-21T12:14:33.205Z,5.00
2023-04-21T12:19:36.412Z,5.18
2023-04-21T12:24:38.272Z,5.47
2023-04-21T12:29:39.754Z,4.47
2023-04-21T12:34:41.651Z,4.78
2023-04-21T12:39:42.998Z,4.82
2023-04-21T12:44:44.874Z,4.88
2023-04-21T12:49:46.409Z,5.95
2023-04-21T12:54:47.729Z,5.60
2023-04-21T12:59:49.106Z,5.63
2023-04-21T13:04:50.679Z,5.78
2023-04-21T13:09:52.041Z,6.20
2023-04-21T13:14:53.389Z,5.90
2023-04-21T13:19:55.015Z,5.53
2023-04-21T13:24:56.384Z,5.60
2023-04-21T13:29:57.758Z,5.45
2023-04-21T13:34:59.145Z,5.50
2023-04-21T13:40:00.651Z,5.68
2023-04-21T13:45:05.289Z,5.65
2023-04-21T13:50:06.858Z,5.45
2023-04-21T13:55:08.381Z,5.80
2023-04-21T14:00:11.793Z,5.85
2023-04-21T14:05:14.390Z,6.38
2023-04-21T14:10:16.057Z,6.00
2023-04-21T14:15:18.513Z,6.10
2023-04-21T14:20:19.947Z,5.63
2023-04-21T14:25:21.457Z,6.25
2023-04-21T14:30:22.767Z,6.15
2023-04-21T14:35:24.226Z,5.82
2023-04-21T14:40:25.668Z,7.43
2023-04-21T14:45:27.384Z,6.65
2023-04-21T14:50:28.854Z,6.13
2023-04-21T14:55:30.288Z,6.60
2023-04-21T15:00:32.100Z,6.85
2023-04-21T15:05:34.799Z,6.15
2023-04-21T15:10:36.296Z,6.07
2023-04-21T15:15:37.777Z,6.60
2023-04-21T15:20:45.262Z,6.25
2023-04-21T15:25:47.076Z,6.15
2023-04-21T15:30:48.459Z,6.38
2023-04-21T15:35:49.925Z,6.80
2023-04-21T15:41:00.636Z,6.70
2023-04-21T15:46:03.075Z,6.47
2023-04-21T15:51:04.651Z,6.88
2023-04-21T15:56:06.100Z,7.28
2023-04-21T16:01:07.638Z,7.55
2023-04-21T16:06:09.210Z,7.10
2023-04-21T16:11:10.688Z,6.72
2023-04-21T16:16:12.101Z,6.35
2023-04-21T16:21:13.579Z,6.93
2023-04-21T16:26:15.192Z,6.95
2023-04-21T16:31:16.689Z,7.10
2023-04-21T16:36:18.261Z,7.32
2023-04-21T16:41:21.035Z,6.68
2023-04-21T16:46:22.742Z,7.00
2023-04-21T16:51:26.089Z,7.00
2023-04-21T16:56:27.510Z,7.20
2023-04-21T17:01:29.017Z,6.38
2023-04-21T17:06:31.611Z,6.45
2023-04-21T17:11:33.084Z,7.70
2023-04-21T17:16:34.576Z,7.63
2023-04-21T17:21:35.980Z,6.45
2023-04-21T17:26:37.518Z,6.72
2023-04-21T17:31:39.103Z,6.78
2023-04-21T17:36:40.778Z,6.65
2023-04-21T17:41:42.172Z,7.55
2023-04-21T17:46:43.788Z,6.72
2023-04-21T17:51:45.416Z,6.15
2023-04-21T17:56:46.941Z,6.85
2023-04-21T18:01:48.423Z,5.28
2023-04-21T18:06:51.136Z,5.93
2023-04-21T18:11:52.708Z,6.63
2023-04-21T18:16:54.546Z,5.35
2023-04-21T18:21:56.402Z,5.55
2023-04-21T18:26:57.834Z,4.57
2023-04-21T18:31:59.359Z,5.32
2023-04-21T18:37:00.854Z,4.20
2023-04-21T18:42:02.330Z,4.63
2023-04-21T18:47:03.799Z,4.10
2023-04-21T18:52:05.185Z,4.57
2023-04-21T18:57:08.191Z,4.45
2023-04-21T19:02:10.955Z,4.70
2023-04-21T19:07:12.638Z,3.90
2023-04-21T19:12:14.440Z,3.90
2023-04-21T19:17:15.841Z,4.22
2023-04-21T19:22:17.432Z,3.60
2023-04-21T19:27:18.811Z,3.25
2023-04-21T19:32:20.682Z,3.92
2023-04-21T19:37:22.390Z,3.63
2023-04-21T19:42:23.701Z,3.67
2023-04-21T19:47:25.029Z,3.22
2023-04-21T19:52:26.395Z,3.45
2023-04-21T19:57:27.724Z,3.28
2023-04-21T20:02:29.448Z,4.38
2023-04-21T20:07:30.901Z,3.45
2023-04-21T20:12:32.374Z,2.75
2023-04-21T20:17:33.866Z,2.85
2023-04-21T20:22:35.483Z,2.83
2023-04-21T20:27:36.823Z,2.88
2023-04-21T20:32:38.257Z,2.60
2023-04-21T20:37:39.689Z,2.63
2023-04-21T20:42:45.086Z,3.13
2023-04-21T20:47:46.701Z,2.17
2023-04-21T20:52:50.089Z,2.63
2023-04-21T20:57:51.427Z,2.65
2023-04-21T21:02:52.819Z,2.22
2023-04-21T21:07:54.370Z,2.78
2023-04-21T21:12:58.047Z,3.20
2023-04-21T21:17:59.885Z,2.83
2023-04-21T21:23:01.350Z,2.58
2023-04-21T21:28:02.807Z,2.63
2023-04-21T21:33:04.211Z,2.72
2023-04-21T21:38:05.642Z,2.55
2023-04-21T21:43:07.583Z,2.45
2023-04-21T21:48:09.186Z,2.55
2023-04-21T21:53:11.981Z,2.63
2023-04-21T21:58:13.368Z,3.20
2023-04-21T22:03:14.806Z,2.50
2023-04-21T22:08:16.359Z,2.75
2023-04-21T22:13:17.657Z,2.80
2023-04-21T22:18:19.397Z,2.38
2023-04-21T22:23:21.289Z,2.92
2023-04-21T22:28:22.675Z,2.70
2023-04-21T22:33:24.236Z,2.65
2023-04-21T22:38:25.640Z,2.78
2023-04-21T22:43:27.075Z,2.60
2023-04-21T22:48:28.426Z,2.60
2023-04-21T22:53:29.804Z,2.75
2023-04-21T22:58:31.194Z,2.67
2023-04-21T23:03:32.779Z,2.70
2023-04-21T23:08:34.414Z,2.58
2023-04-21T23:13:35.788Z,2.53
2023-04-21T23:18:37.113Z,2.53
2023-04-21T23:23:38.532Z,2.47
2023-04-21T23:28:39.981Z,3.33
2023-04-21T23:33:41.397Z,2.70
2023-04-21T23:38:42.776Z,2.45
2023-04-21T23:43:44.106Z,2.47
2023-04-21T23:48:45.472Z,3.00
2023-04-21T23:53:46.847Z,2.80
2023-04-21T23:58:48.220Z,2.67
